Etusivu
METAR-TAF:

METAR-TAF

Lentoasemat :

Røst, Norja

Leveyspiiri: 67-31N, Pituuspiiri: 012-06E, korkeus merenpinnasta: 4 m

Tämänhetkinen sää

Tämä raportti tehtiin 12 minuuttia sitten, kello 17.50 UTC
Tuuli 20 kn etelästä
Lämpötila 6°C
Kosteus 87%
Ilmanpaine 1003 hPa
Näkyvyys 10 km tai enemmän
Hajanaisia pilviä 1500 ft:n korkeudessa
Hajonneita pilviä 2600 ft:n korkeudessa
heikkoja vesikuuroja

METAR: ENRS 211750Z 19020KT 9999 -SHRA SCT015 BKN026 06/04 Q1003

Aika: 20:02 (18:02 UTC)


TAF: puuttuu

Säähavainnot ja -ennusteet yli 4000 lentoasemalta (METAR- ja TAF-raportit).

Käytössä olevat sääasemat on merkitty karttaan keltaisilla ja punaisilla pisteillä.

Aseta hiiri pisteen päälle nähdäksesi sääaseman nimen.

Klikkaa sitten nähdäksesi säähavainnot ja -ennusteet.

Kartan vaihtaminen: klikkaa mustalla rastilla varustettuja vihreitä pisteitä, niin voit zoomata sisään; viivalla varustettua vihreää pistettä, niin voit zoomata ulos tai vihreitä nuolia, niin pääset viereisille kartoille.


METAR-TAF: